createdAt,value
2022-10-11T00:00:42.606Z,65.7143
2022-10-11T00:01:42.694Z,65.7857
2022-10-11T00:02:42.674Z,65.8571
2022-10-11T00:03:42.705Z,65.8571
2022-10-11T00:04:42.740Z,65.8571
2022-10-11T00:05:42.778Z,65.8571
2022-10-11T00:06:42.808Z,65.9286
2022-10-11T00:07:42.841Z,66
2022-10-11T00:08:42.867Z,66
2022-10-11T00:09:42.891Z,66.0714
2022-10-11T00:10:42.925Z,66.0714
2022-10-11T00:11:42.951Z,66.1429
2022-10-11T00:12:42.980Z,66.1429
2022-10-11T00:13:43.002Z,66.1429
2022-10-11T00:14:43.043Z,66.1429
2022-10-11T00:15:43.071Z,66.2143
2022-10-11T00:16:43.100Z,66.2143
2022-10-11T00:17:43.136Z,66.2857
2022-10-11T00:18:43.171Z,66.2857
2022-10-11T00:19:43.212Z,66.3571
2022-10-11T00:20:43.238Z,66.3571
2022-10-11T00:21:43.267Z,66.3571
2022-10-11T00:22:43.294Z,66.4286
2022-10-11T00:23:43.323Z,66.4286
2022-10-11T00:24:43.350Z,66.5
2022-10-11T00:25:43.385Z,66.5
2022-10-11T00:26:46.513Z,66.5714
2022-10-11T00:27:43.462Z,66.6429
2022-10-11T00:28:43.525Z,66.7143
2022-10-11T00:29:43.527Z,66.7857
2022-10-11T00:30:43.569Z,66.7857
2022-10-11T00:31:43.609Z,66.8571
2022-10-11T00:32:43.649Z,66.8571
2022-10-11T00:33:43.677Z,66.9286
2022-10-11T00:34:43.714Z,67
2022-10-11T00:35:43.740Z,67
2022-10-11T00:36:43.768Z,67
2022-10-11T00:37:43.801Z,67
2022-10-11T00:38:43.838Z,67
2022-10-11T00:39:43.868Z,67.0714
2022-10-11T00:40:43.899Z,67.0714
2022-10-11T00:41:43.917Z,67.0714
2022-10-11T00:42:43.949Z,67
2022-10-11T00:43:43.979Z,67
2022-10-11T00:44:44.009Z,67
2022-10-11T00:45:44.043Z,67.1429
2022-10-11T00:46:44.083Z,67.2143
2022-10-11T00:47:44.108Z,67.2857
2022-10-11T00:48:44.143Z,67.2143
2022-10-11T00:49:44.176Z,67.2143
2022-10-11T00:50:44.206Z,67.4286
2022-10-11T00:51:44.236Z,67.5
2022-10-11T00:52:44.272Z,67.6429
2022-10-11T00:53:44.320Z,67.6429
2022-10-11T00:54:44.339Z,67.5714
2022-10-11T00:55:44.370Z,67.5
2022-10-11T00:56:44.404Z,67.5
2022-10-11T00:57:44.441Z,67.5714
2022-10-11T00:58:44.473Z,67.6429
2022-10-11T00:59:44.504Z,67.7143
2022-10-11T01:00:44.534Z,67.7143
2022-10-11T01:01:44.684Z,67.7857
2022-10-11T01:02:44.593Z,67.8571
2022-10-11T01:03:44.627Z,67.9286
2022-10-11T01:04:44.661Z,68.0714
2022-10-11T01:05:44.696Z,68.1429
2022-10-11T01:06:44.734Z,68.2143
2022-10-11T01:07:44.763Z,68.3571
2022-10-11T01:08:44.790Z,68.2857
2022-10-11T01:09:44.817Z,68.4286
2022-10-11T01:10:44.853Z,68.5714
2022-10-11T01:11:44.886Z,68.5714
2022-10-11T01:12:44.924Z,68.5714
2022-10-11T01:13:44.958Z,68.7143
2022-10-11T01:14:44.989Z,68.7857
2022-10-11T01:15:45.009Z,68.7857
2022-10-11T01:16:45.041Z,68.8571
2022-10-11T01:17:45.069Z,68.9286
2022-10-11T01:18:45.103Z,68.9286
2022-10-11T01:19:45.134Z,69
2022-10-11T01:20:45.174Z,69.0714
2022-10-11T01:21:45.186Z,69.0714
2022-10-11T01:22:45.215Z,69.0714
2022-10-11T01:23:45.241Z,69
2022-10-11T01:24:45.274Z,69
2022-10-11T01:25:45.310Z,68.7857
2022-10-11T01:26:45.355Z,68.7857
2022-10-11T01:27:45.379Z,68.7857
2022-10-11T01:28:45.487Z,68.7857
2022-10-11T01:29:45.443Z,68.7857
2022-10-11T01:30:45.474Z,68.7857
2022-10-11T01:31:45.507Z,68.8571
2022-10-11T01:32:45.534Z,68.7143
2022-10-11T01:33:45.570Z,68.7143
2022-10-11T01:34:45.603Z,68.7143
2022-10-11T01:35:45.638Z,68.7143
2022-10-11T01:36:45.678Z,68.7857
2022-10-11T01:37:45.713Z,68.8571
2022-10-11T01:38:45.749Z,68.8571
2022-10-11T01:39:45.789Z,68.8571
2022-10-11T01:40:45.817Z,68.8571
2022-10-11T01:41:45.854Z,68.7857
2022-10-11T01:42:45.887Z,68.8571
2022-10-11T01:43:45.922Z,68.7857
2022-10-11T01:44:45.960Z,68.8571
2022-10-11T01:45:46.008Z,68.9286
2022-10-11T01:46:46.021Z,69
2022-10-11T01:47:46.053Z,69.0714
2022-10-11T01:48:46.095Z,69.1429
2022-10-11T01:49:46.125Z,69.2857
2022-10-11T01:50:46.174Z,69.5
2022-10-11T01:51:47.521Z,69.7143
2022-10-11T01:52:46.219Z,70
2022-10-11T01:53:46.242Z,70.1429
2022-10-11T01:55:08.159Z,70.3571
2022-10-11T01:55:46.307Z,70.4286
2022-10-11T01:56:46.344Z,70.5
2022-10-11T01:57:46.368Z,70.5714
2022-10-11T01:58:46.398Z,70.7143
2022-10-11T01:59:46.426Z,70.7857
2022-10-11T02:00:46.460Z,70.7857
2022-10-11T02:01:46.522Z,70.7857
2022-10-11T02:02:46.525Z,70.9286
2022-10-11T02:03:46.557Z,71
2022-10-11T02:04:46.590Z,71.0714
2022-10-11T02:05:46.620Z,71.0714
2022-10-11T02:06:46.651Z,71.1429
2022-10-11T02:07:46.691Z,71.1429
2022-10-11T02:08:46.718Z,71.1429
2022-10-11T02:09:46.753Z,71.2143
2022-10-11T02:10:46.787Z,71.2143
2022-10-11T02:11:46.817Z,71.2143
2022-10-11T02:12:46.852Z,71.2857
2022-10-11T02:13:46.867Z,71.2857
2022-10-11T02:14:46.899Z,71.2857
2022-10-11T02:15:46.931Z,71.3571
2022-10-11T02:16:46.965Z,71.3571
2022-10-11T02:17:47.006Z,71.3571
2022-10-11T02:18:47.034Z,71.2857
2022-10-11T02:19:47.066Z,71.3571
2022-10-11T02:20:47.101Z,71.4286
2022-10-11T02:21:47.118Z,71.5
2022-10-11T02:22:47.155Z,71.5
2022-10-11T02:23:47.195Z,71.5714
2022-10-11T02:24:47.225Z,71.6429
2022-10-11T02:25:47.259Z,71.5714
2022-10-11T02:26:47.289Z,71.5714
2022-10-11T02:27:47.324Z,71.5714
2022-10-11T02:28:47.393Z,71.5714
2022-10-11T02:29:47.385Z,71.6429
2022-10-11T02:30:47.423Z,71.6429
2022-10-11T02:31:47.459Z,71.7143
2022-10-11T02:32:47.494Z,71.7143
2022-10-11T02:33:47.530Z,71.8571
2022-10-11T02:34:47.563Z,71.8571
2022-10-11T02:35:47.596Z,72
2022-10-11T02:36:47.629Z,72.0714
2022-10-11T02:37:47.663Z,72
2022-10-11T02:38:47.692Z,72
2022-10-11T02:39:47.732Z,72
2022-10-11T02:40:47.777Z,72
2022-10-11T02:41:47.799Z,72
2022-10-11T02:42:47.831Z,72
2022-10-11T02:43:47.865Z,72.0714
2022-10-11T02:44:47.900Z,72.1429
2022-10-11T02:45:47.940Z,72.1429
2022-10-11T02:46:47.967Z,72.0714
2022-10-11T02:47:48.002Z,72.0714
2022-10-11T02:48:48.034Z,72.2143
2022-10-11T02:49:48.067Z,72.2143
2022-10-11T02:50:48.095Z,72.2143
2022-10-11T02:51:48.126Z,72.1429
2022-10-11T02:52:48.156Z,72.1429
2022-10-11T02:53:48.189Z,72.1429
2022-10-11T02:54:48.232Z,72.1429
2022-10-11T02:55:48.260Z,72.2143
2022-10-11T02:56:48.289Z,72.2143
2022-10-11T02:57:48.327Z,72.3571
2022-10-11T02:58:48.354Z,72.3571
2022-10-11T02:59:48.388Z,72.3571
2022-10-11T03:00:48.414Z,72.2857
2022-10-11T03:01:48.515Z,72.2143
2022-10-11T03:02:48.474Z,72.2857
2022-10-11T03:03:48.507Z,72.3571
2022-10-11T03:04:48.543Z,72.4286
2022-10-11T03:05:48.580Z,72.5
2022-10-11T03:06:48.604Z,72.5714
2022-10-11T03:07:48.638Z,72.7143
2022-10-11T03:08:48.672Z,72.7857
2022-10-11T03:09:48.711Z,72.8571
2022-10-11T03:10:48.752Z,72.9286
2022-10-11T03:11:48.776Z,73.1429
2022-10-11T03:12:48.806Z,73.1429
2022-10-11T03:13:48.846Z,73.2143
2022-10-11T03:14:48.876Z,73.2857
2022-10-11T03:15:50.353Z,73.3571
2022-10-11T03:16:51.553Z,73.4286
2022-10-11T03:17:48.992Z,73.4286
2022-10-11T03:18:49.020Z,73.5
2022-10-11T03:19:49.057Z,73.5
2022-10-11T03:20:49.087Z,73.5714
2022-10-11T03:21:49.120Z,73.5714
2022-10-11T03:22:49.153Z,73.6429
2022-10-11T03:23:49.190Z,73.6429
2022-10-11T03:24:49.216Z,73.6429
2022-10-11T03:25:49.247Z,73.7143
2022-10-11T03:26:49.282Z,73.7857
2022-10-11T03:27:49.317Z,73.7857
2022-10-11T03:28:49.381Z,73.8571
2022-10-11T03:29:49.385Z,74
2022-10-11T03:30:49.412Z,74
2022-10-11T03:31:49.449Z,74
2022-10-11T03:32:49.485Z,74
2022-10-11T03:33:49.517Z,74
2022-10-11T03:34:49.551Z,74
2022-10-11T03:35:49.584Z,74
2022-10-11T03:36:49.614Z,74
2022-10-11T03:37:49.642Z,74
2022-10-11T03:38:49.676Z,74.0714
2022-10-11T03:39:49.704Z,74.0714
2022-10-11T03:40:49.738Z,74.0714
2022-10-11T03:41:49.770Z,74.1429
2022-10-11T03:42:49.808Z,74.2143
2022-10-11T03:43:49.853Z,74.2857
2022-10-11T03:44:49.884Z,74.2143
2022-10-11T03:45:49.934Z,74.2857
2022-10-11T03:46:49.955Z,74.3571
2022-10-11T03:47:49.990Z,74.4286
2022-10-11T03:48:50.019Z,74.5
2022-10-11T03:49:50.041Z,74.5
2022-10-11T03:50:50.074Z,74.5
2022-10-11T03:51:50.101Z,74.5
2022-10-11T03:52:50.137Z,74.5
2022-10-11T03:53:50.173Z,74.5
2022-10-11T03:54:50.210Z,74.5
2022-10-11T03:55:50.248Z,74.5
2022-10-11T03:56:50.284Z,74.5714
2022-10-11T03:57:50.325Z,74.5714
2022-10-11T03:58:50.352Z,74.5
2022-10-11T03:59:50.389Z,74.5
2022-10-11T04:00:50.423Z,74.4286
2022-10-11T04:01:50.486Z,74.4286
2022-10-11T04:02:50.483Z,74.4286
2022-10-11T04:03:50.519Z,74.4286
2022-10-11T04:04:50.551Z,74.4286
2022-10-11T04:05:50.584Z,74.4286
2022-10-11T04:06:50.624Z,74.4286
2022-10-11T04:07:50.659Z,74.5
2022-10-11T04:08:50.699Z,74.5
2022-10-11T04:09:50.735Z,74.4286
2022-10-11T04:10:50.771Z,74.5
2022-10-11T04:11:50.803Z,74.5
2022-10-11T04:12:50.835Z,74.5
2022-10-11T04:13:50.867Z,74.5714
2022-10-11T04:14:50.901Z,74.5714
2022-10-11T04:15:50.932Z,74.5714
2022-10-11T04:16:50.968Z,74.5714
2022-10-11T04:17:50.994Z,74.6429
2022-10-11T04:18:51.026Z,74.5714
2022-10-11T04:19:51.055Z,74.5714
2022-10-11T04:20:51.080Z,74.5
2022-10-11T04:21:51.112Z,74.5
2022-10-11T04:22:51.146Z,74.5
2022-10-11T04:23:51.169Z,74.5
2022-10-11T04:24:51.202Z,74.5714
2022-10-11T04:25:51.253Z,74.5714
2022-10-11T04:26:51.270Z,74.5714
2022-10-11T04:27:51.298Z,74.6429
2022-10-11T04:28:51.386Z,74.7143
2022-10-11T04:29:51.364Z,74.7143
2022-10-11T04:30:51.413Z,74.7857
2022-10-11T04:31:51.438Z,74.9286
2022-10-11T04:32:51.455Z,74.9286
2022-10-11T04:33:51.491Z,75
2022-10-11T04:34:51.524Z,75
2022-10-11T04:35:51.575Z,75
2022-10-11T04:36:51.600Z,75.0714
2022-10-11T04:37:51.632Z,75.0714
2022-10-11T04:38:51.660Z,75.0714
2022-10-11T04:39:51.696Z,75.0714
2022-10-11T04:40:51.722Z,75.1429
2022-10-11T04:41:51.745Z,75.1429
2022-10-11T04:42:51.784Z,75.1429
2022-10-11T04:43:51.809Z,75.1429
2022-10-11T04:44:51.838Z,75.1429
2022-10-11T04:45:55.433Z,75.1429
2022-10-11T04:46:51.910Z,75.1429
2022-10-11T04:47:51.930Z,75.0714
2022-10-11T04:48:51.967Z,75.0714
2022-10-11T04:49:52.001Z,75.1429
2022-10-11T04:50:52.028Z,75.1429
2022-10-11T04:51:52.062Z,75.1429
2022-10-11T04:52:52.084Z,75.1429
2022-10-11T04:53:52.121Z,75.0714
2022-10-11T04:54:52.150Z,75.0714
2022-10-11T04:55:52.188Z,75.0714
2022-10-11T04:56:52.231Z,75.0714
2022-10-11T04:57:52.251Z,75.0714
2022-10-11T04:58:52.286Z,75.0714
2022-10-11T04:59:52.316Z,75.1429
2022-10-11T05:00:52.345Z,75.1429
2022-10-11T05:01:52.449Z,75.0714
2022-10-11T05:02:52.402Z,75.0714
2022-10-11T05:03:52.438Z,75
2022-10-11T05:04:52.476Z,74.9286
2022-10-11T05:05:52.508Z,74.8571
2022-10-11T05:06:52.542Z,74.8571
2022-10-11T05:07:52.576Z,74.8571
2022-10-11T05:08:52.601Z,74.8571
2022-10-11T05:09:52.630Z,74.8571
2022-10-11T05:10:52.662Z,74.8571
2022-10-11T05:11:52.698Z,74.8571
2022-10-11T05:12:52.730Z,74.8571
2022-10-11T05:13:52.763Z,74.8571
2022-10-11T05:14:52.792Z,74.9286
2022-10-11T05:15:52.815Z,74.9286
2022-10-11T05:16:52.855Z,74.9286
2022-10-11T05:17:52.896Z,74.9286
2022-10-11T05:18:52.932Z,74.9286
2022-10-11T05:19:52.965Z,74.9286
2022-10-11T05:20:52.989Z,74.7857
2022-10-11T05:21:53.021Z,74.7143
2022-10-11T05:22:53.051Z,74.7143
2022-10-11T05:23:53.082Z,74.7143
2022-10-11T05:24:53.113Z,74.7143
2022-10-11T05:25:53.145Z,74.7143
2022-10-11T05:26:53.177Z,74.6429
2022-10-11T05:27:53.207Z,74.6429
2022-10-11T05:28:53.314Z,74.6429
2022-10-11T05:29:53.265Z,74.5714
2022-10-11T05:30:53.300Z,74.5
2022-10-11T05:31:53.327Z,74.4286
2022-10-11T05:32:53.360Z,74.2143
2022-10-11T05:33:53.396Z,74.1429
2022-10-11T05:34:53.430Z,74.1429
2022-10-11T05:35:53.461Z,74.0714
2022-10-11T05:36:53.496Z,73.9286
2022-10-11T05:37:53.518Z,73.8571
2022-10-11T05:38:53.551Z,73.8571
2022-10-11T05:39:53.585Z,73.8571
2022-10-11T05:40:53.611Z,73.8571
2022-10-11T05:41:53.647Z,73.9286
2022-10-11T05:42:53.677Z,73.8571
2022-10-11T05:43:53.712Z,73.8571
2022-10-11T05:44:53.755Z,73.8571
2022-10-11T05:45:53.770Z,73.9286
2022-10-11T05:46:53.798Z,74
2022-10-11T05:47:53.835Z,74.1429
2022-10-11T05:48:53.869Z,74.2143
2022-10-11T05:49:53.903Z,74.2143
2022-10-11T05:50:53.951Z,74.2857
2022-10-11T05:51:53.970Z,74.3571
2022-10-11T05:52:54.000Z,74.3571
2022-10-11T05:53:54.036Z,74.4286
2022-10-11T05:54:54.064Z,74.4286
2022-10-11T05:55:54.098Z,74.4286
2022-10-11T05:56:54.135Z,74.4286
2022-10-11T05:57:54.174Z,74.3571
2022-10-11T05:58:57.521Z,74.3571
2022-10-11T05:59:54.230Z,74.2857
2022-10-11T06:00:54.306Z,74.2143
2022-10-11T06:01:54.383Z,74.2857
2022-10-11T06:02:54.327Z,74.2857
2022-10-11T06:03:54.360Z,74.2143
2022-10-11T06:04:54.398Z,74.2857
2022-10-11T06:06:03.293Z,74.2143
2022-10-11T06:06:54.472Z,74.2143
2022-10-11T06:07:54.506Z,74.1429
2022-10-11T06:08:54.539Z,74.0714
2022-10-11T06:09:54.569Z,74.0714
2022-10-11T06:10:54.612Z,74.0714
2022-10-11T06:11:54.642Z,74.1429
2022-10-11T06:12:54.688Z,74.1429
2022-10-11T06:13:54.720Z,74.2143
2022-10-11T06:14:54.749Z,74.2857
2022-10-11T06:15:54.776Z,74.2857
2022-10-11T06:16:54.814Z,74.2143
2022-10-11T06:17:54.819Z,74.2143
2022-10-11T06:18:54.848Z,74.2143
2022-10-11T06:19:54.882Z,74.1429
2022-10-11T06:20:54.919Z,74.2143
2022-10-11T06:21:54.955Z,74.1429
2022-10-11T06:22:54.983Z,74.2143
2022-10-11T06:24:00.925Z,74.2143
2022-10-11T06:24:55.043Z,74.2143
2022-10-11T06:25:55.079Z,74.1429
2022-10-11T06:26:55.111Z,74.1429
2022-10-11T06:27:55.129Z,74.0714
2022-10-11T06:28:55.244Z,74.0714
2022-10-11T06:29:55.190Z,74.0714
2022-10-11T06:30:55.218Z,74.0714
2022-10-11T06:31:55.254Z,74
2022-10-11T06:32:55.278Z,74
2022-10-11T06:33:55.317Z,74
2022-10-11T06:34:55.350Z,73.9286
2022-10-11T06:35:55.380Z,73.9286
2022-10-11T06:36:55.415Z,73.9286
2022-10-11T06:37:55.439Z,73.9286
2022-10-11T06:38:55.468Z,73.9286
2022-10-11T06:39:55.505Z,73.8571
2022-10-11T06:40:55.543Z,73.9286
2022-10-11T06:41:55.574Z,73.8571
2022-10-11T06:42:55.606Z,73.8571
2022-10-11T06:43:55.642Z,73.7857
2022-10-11T06:44:55.677Z,73.7143
2022-10-11T06:45:55.708Z,73.7143
2022-10-11T06:46:55.739Z,73.6429
2022-10-11T06:47:55.779Z,73.5
2022-10-11T06:48:55.809Z,73.5
2022-10-11T06:49:55.842Z,73.4286
2022-10-11T06:50:59.979Z,73.4286
2022-10-11T06:51:55.900Z,73.3571
2022-10-11T06:52:55.934Z,73.2143
2022-10-11T06:53:55.976Z,73.1429
2022-10-11T06:54:56.002Z,73
2022-10-11T06:55:56.026Z,72.9286
2022-10-11T06:56:56.065Z,72.7857
2022-10-11T06:57:56.100Z,72.7143
2022-10-11T06:58:56.128Z,72.6429
2022-10-11T06:59:56.163Z,72.6429
2022-10-11T07:00:56.274Z,72.6429
2022-10-11T07:01:56.230Z,72.6429
2022-10-11T07:02:56.264Z,72.6429
2022-10-11T07:03:56.297Z,72.6429
2022-10-11T07:04:56.331Z,72.6429
2022-10-11T07:06:00.203Z,72.6429
2022-10-11T07:06:56.382Z,72.6429
2022-10-11T07:07:56.409Z,72.6429
2022-10-11T07:08:56.443Z,72.6429
2022-10-11T07:09:56.482Z,72.6429
2022-10-11T07:10:56.515Z,72.6429
2022-10-11T07:11:56.566Z,72.6429
2022-10-11T07:12:56.595Z,72.6429
2022-10-11T07:13:56.608Z,72.6429
2022-10-11T07:14:56.641Z,72.6429
2022-10-11T07:15:56.661Z,72.6429
2022-10-11T07:16:56.684Z,72.6429
2022-10-11T07:17:56.725Z,72.7143
2022-10-11T07:19:00.199Z,72.7143
2022-10-11T07:19:56.785Z,72.7143
2022-10-11T07:20:56.821Z,72.7143
2022-10-11T07:21:56.854Z,72.7143
2022-10-11T07:22:56.884Z,72.7143
2022-10-11T07:23:56.914Z,72.7857
2022-10-11T07:24:56.948Z,72.7143
2022-10-11T07:25:56.976Z,72.7143
2022-10-11T07:26:57.004Z,72.7857
2022-10-11T07:27:57.040Z,72.7857
2022-10-11T07:28:57.177Z,72.7857
2022-10-11T07:29:57.099Z,72.7857
2022-10-11T07:30:57.162Z,72.7857
2022-10-11T07:31:57.160Z,72.7857
2022-10-11T07:32:57.189Z,72.7857
2022-10-11T07:33:57.223Z,72.7857
2022-10-11T07:34:57.270Z,72.7143
2022-10-11T07:35:57.291Z,72.7143
2022-10-11T07:36:57.329Z,72.6429
2022-10-11T07:37:57.373Z,72.6429
2022-10-11T07:38:57.383Z,72.5714
2022-10-11T07:39:57.416Z,72.5714
2022-10-11T07:40:57.477Z,72.6429
2022-10-11T07:41:57.490Z,72.5714
2022-10-11T07:42:57.525Z,72.5714
2022-10-11T07:43:57.554Z,72.5714
2022-10-11T07:44:57.592Z,72.4286
2022-10-11T07:45:57.624Z,72.3571
2022-10-11T07:46:57.638Z,72.3571
2022-10-11T07:47:57.685Z,72.2857
2022-10-11T07:48:57.709Z,72.2143
2022-10-11T07:49:57.773Z,72.2143
2022-10-11T07:50:57.782Z,72.2143
2022-10-11T07:51:57.820Z,72.1429
2022-10-11T07:52:57.851Z,72.1429
2022-10-11T07:53:57.901Z,72.0714
2022-10-11T07:54:57.908Z,72.0714
2022-10-11T07:55:57.949Z,72
2022-10-11T07:56:57.979Z,72.0714
2022-10-11T07:57:58.009Z,72.1429
2022-10-11T07:58:58.065Z,72.0714
2022-10-11T07:59:58.068Z,72
2022-10-11T08:00:58.166Z,72
2022-10-11T08:01:58.190Z,72
2022-10-11T08:02:58.216Z,71.9286
2022-10-11T08:03:58.211Z,71.9286
2022-10-11T08:04:58.230Z,71.8571
2022-10-11T08:05:58.245Z,71.9286
2022-10-11T08:06:58.295Z,71.8571
2022-10-11T08:07:58.321Z,71.8571
2022-10-11T08:08:58.353Z,71.8571
2022-10-11T08:09:58.400Z,71.8571
2022-10-11T08:10:58.443Z,71.9286
2022-10-11T08:11:58.453Z,71.9286
2022-10-11T08:13:03.987Z,72
2022-10-11T08:13:58.522Z,72
2022-10-11T08:14:58.545Z,71.8571
2022-10-11T08:15:58.576Z,71.7857
2022-10-11T08:16:58.612Z,71.7143
2022-10-11T08:17:58.652Z,71.6429
2022-10-11T08:18:58.672Z,71.6429
2022-10-11T08:19:58.719Z,71.6429
2022-10-11T08:20:58.729Z,71.5714
2022-10-11T08:21:58.770Z,71.5714
2022-10-11T08:22:46.343Z,71.6429
2022-10-11T08:23:46.367Z,71.7143
2022-10-11T08:24:46.405Z,71.7143
2022-10-11T08:25:46.428Z,71.7857
2022-10-11T08:26:46.456Z,71.8571
2022-10-11T08:27:46.491Z,71.9286
2022-10-11T08:28:46.623Z,71.9286
2022-10-11T08:29:46.556Z,71.8571
2022-10-11T08:30:46.596Z,71.6429
2022-10-11T08:31:46.628Z,71.5
2022-10-11T08:32:46.663Z,71.4286
2022-10-11T08:33:46.691Z,71.4286
2022-10-11T08:34:46.731Z,71.4286
2022-10-11T08:35:46.759Z,71.5
2022-10-11T08:36:46.791Z,71.5
2022-10-11T08:37:46.830Z,71.5714
2022-10-11T08:38:46.860Z,71.2857
2022-10-11T08:39:46.896Z,71.0714
2022-10-11T08:40:46.922Z,70.9286
2022-10-11T08:41:46.963Z,70.8571
2022-10-11T08:42:46.995Z,70.7143
2022-10-11T08:43:47.027Z,70.5714
2022-10-11T08:45:09.550Z,70.5
2022-10-11T08:45:47.096Z,70.3571
2022-10-11T08:46:47.128Z,70.5
2022-10-11T08:47:47.160Z,70.4286
2022-10-11T08:48:47.202Z,70.3571
2022-10-11T08:49:47.226Z,70.2857
2022-10-11T08:50:47.253Z,70.2143
2022-10-11T08:51:47.291Z,70.1429
2022-10-11T08:52:47.323Z,70
2022-10-11T08:53:47.353Z,69.9286
2022-10-11T08:54:47.390Z,69.6429
2022-10-11T08:55:47.418Z,69.4286
2022-10-11T08:56:47.447Z,69.2143
2022-10-11T08:57:47.473Z,69.0714
2022-10-11T08:58:47.500Z,69
2022-10-11T08:59:47.531Z,68.9286
2022-10-11T09:00:47.564Z,69.2857
2022-10-11T09:01:47.760Z,69.3571
2022-10-11T09:03:06.471Z,69.2857
2022-10-11T09:03:47.659Z,69.0714
2022-10-11T09:04:47.691Z,69.0714
2022-10-11T09:05:47.716Z,68.8571
2022-10-11T09:06:47.750Z,68.6429
2022-10-11T09:07:47.787Z,68.5714
2022-10-11T09:08:47.815Z,68.3571
2022-10-11T09:09:47.835Z,68.2857
2022-10-11T09:10:47.868Z,68.2857
2022-10-11T09:11:47.897Z,68.2857
2022-10-11T09:12:47.926Z,68.2857
2022-10-11T09:13:47.954Z,68.1429
2022-10-11T09:14:47.985Z,68
2022-10-11T09:15:48.035Z,67.7143
2022-10-11T09:16:48.054Z,67.7857
2022-10-11T09:17:48.095Z,67.9286
2022-10-11T09:18:48.105Z,67.7857
2022-10-11T09:19:48.149Z,67.6429
2022-10-11T09:20:48.170Z,67.5
2022-10-11T09:21:48.195Z,67.3571
2022-10-11T09:22:48.226Z,67.2857
2022-10-11T09:23:48.263Z,67.1429
2022-10-11T09:24:48.292Z,67.1429
2022-10-11T09:25:48.314Z,67.2857
2022-10-11T09:26:48.350Z,67.2143
2022-10-11T09:28:02.503Z,67
2022-10-11T09:28:48.462Z,67
2022-10-11T09:29:48.448Z,66.9286
2022-10-11T09:30:48.477Z,66.8571
2022-10-11T09:31:48.504Z,66.6429
2022-10-11T09:32:48.538Z,66.7143
2022-10-11T09:33:48.569Z,66.7143
2022-10-11T09:34:48.603Z,66.6429
2022-10-11T09:35:48.635Z,66.3571
2022-10-11T09:36:48.663Z,66.1429
2022-10-11T09:37:48.683Z,66.0714
2022-10-11T09:38:48.715Z,66
2022-10-11T09:39:48.748Z,65.7143
2022-10-11T09:40:48.775Z,65.9286
2022-10-11T09:41:48.802Z,66.0714
2022-10-11T09:42:48.831Z,66
2022-10-11T09:43:48.873Z,65.9286
2022-10-11T09:44:48.903Z,65.7857
2022-10-11T09:45:49.811Z,65.5714
2022-10-11T09:46:48.964Z,65.6429
2022-10-11T09:47:48.999Z,65.5
2022-10-11T09:48:49.027Z,65.5714
2022-10-11T09:49:49.061Z,65.6429
2022-10-11T09:50:49.093Z,65.9286
2022-10-11T09:51:49.136Z,65.7143
2022-10-11T09:52:49.163Z,65.5714
2022-10-11T09:53:49.194Z,65.2857
2022-10-11T09:54:49.236Z,65.2143
2022-10-11T09:55:49.260Z,65.2857
2022-10-11T09:56:49.300Z,65.3571
2022-10-11T09:57:49.337Z,65.2857
2022-10-11T09:58:49.369Z,65.1429
2022-10-11T09:59:49.403Z,64.5714
2022-10-11T10:00:49.450Z,64.5
2022-10-11T10:01:49.512Z,64.3571
2022-10-11T10:02:49.490Z,64.3571
2022-10-11T10:03:49.510Z,64.2857
2022-10-11T10:04:49.533Z,64.5714
2022-10-11T10:05:49.563Z,64.7143
2022-10-11T10:06:49.594Z,64.3571
2022-10-11T10:07:49.622Z,63.9286
2022-10-11T10:08:49.650Z,63.4286
2022-10-11T10:09:49.684Z,63.3571
2022-10-11T10:10:49.718Z,63.2857
2022-10-11T10:11:49.770Z,62.8571
2022-10-11T10:12:49.778Z,62.7857
2022-10-11T10:13:49.812Z,63.0714
2022-10-11T10:14:49.850Z,63
2022-10-11T10:15:49.875Z,62.7857
2022-10-11T10:16:49.906Z,62.8571
2022-10-11T10:17:49.937Z,62.4286
2022-10-11T10:18:49.963Z,62.5
2022-10-11T10:19:50.003Z,62.3571
2022-10-11T10:20:50.033Z,62.0714
2022-10-11T10:21:50.062Z,61.8571
2022-10-11T10:22:50.092Z,61.9286
2022-10-11T10:23:50.124Z,62.2857
2022-10-11T10:24:50.163Z,62.6429
2022-10-11T10:25:50.203Z,62.4286
2022-10-11T10:26:50.227Z,62.3571
2022-10-11T10:27:50.256Z,62.0714
2022-10-11T10:28:50.725Z,62
2022-10-11T10:29:50.326Z,61.8571
2022-10-11T10:30:50.379Z,61.5
2022-10-11T10:32:12.845Z,61.4286
2022-10-11T10:32:50.401Z,61.2143
2022-10-11T10:33:50.430Z,61.1429
2022-10-11T10:34:50.468Z,60.8571
2022-10-11T10:35:50.506Z,60.5714
2022-10-11T10:36:50.533Z,60.5
2022-10-11T10:37:50.559Z,60.6429
2022-10-11T10:38:52.321Z,60.4286
2022-10-11T10:39:50.613Z,60.0714
2022-10-11T10:40:50.645Z,59.7857
2022-10-11T10:41:50.685Z,59.6429
2022-10-11T10:42:50.718Z,59.9286
2022-10-11T10:43:50.752Z,59.9286
2022-10-11T10:44:50.781Z,59.3571
2022-10-11T10:45:50.816Z,58.6429
2022-10-11T10:46:50.847Z,58.6429
2022-10-11T10:47:50.885Z,58.6429
2022-10-11T10:49:28.742Z,58.7143
2022-10-11T10:49:54.940Z,58.2857
2022-10-11T10:50:50.975Z,58.5
2022-10-11T10:51:51.005Z,58.5714
2022-10-11T10:52:51.040Z,58.2143
2022-10-11T10:53:51.070Z,57.6429
2022-10-11T10:54:51.101Z,57.5714
2022-10-11T10:55:51.127Z,57.4286
2022-10-11T10:56:51.151Z,57.2143
2022-10-11T10:57:51.188Z,57.0714
2022-10-11T10:58:51.215Z,56.7143
2022-10-11T10:59:51.253Z,56.6429
2022-10-11T11:00:51.284Z,56.7857
2022-10-11T11:01:51.446Z,56.6429
2022-10-11T11:02:51.412Z,56.4286
2022-10-11T11:03:51.377Z,56.0714
2022-10-11T11:04:51.463Z,56.2857
2022-10-11T11:05:51.448Z,56.1429
2022-10-11T11:06:51.477Z,55.7143
2022-10-11T11:07:51.513Z,55.9286
2022-10-11T11:08:51.547Z,55.8571
2022-10-11T11:09:51.576Z,54.5
2022-10-11T11:10:51.614Z,54.4286
2022-10-11T11:11:51.655Z,54.4286
2022-10-11T11:12:51.695Z,54.8571
2022-10-11T11:13:51.719Z,54.7143
2022-10-11T11:14:51.760Z,54.3571
2022-10-11T11:15:51.798Z,54.2857
2022-10-11T11:16:51.829Z,54.2857
2022-10-11T11:17:51.859Z,53.4286
2022-10-11T11:18:51.882Z,53.4286
2022-10-11T11:19:51.920Z,53.5
2022-10-11T11:20:51.944Z,53.8571
2022-10-11T11:21:51.983Z,54
2022-10-11T11:22:52.020Z,54.3571
2022-10-11T11:23:52.053Z,53.6429
2022-10-11T11:24:52.078Z,52.4286
2022-10-11T11:25:52.118Z,52
2022-10-11T11:26:52.153Z,52.5
2022-10-11T11:27:52.179Z,52.3571
2022-10-11T11:28:52.307Z,52.9286
2022-10-11T11:29:55.386Z,52.2857
2022-10-11T11:30:52.272Z,51.9286
2022-10-11T11:31:52.310Z,51.8571
2022-10-11T11:32:52.342Z,52.3571
2022-10-11T11:33:52.370Z,52.5714
2022-10-11T11:34:52.404Z,52.3571
2022-10-11T11:35:52.438Z,52.1429
2022-10-11T11:36:52.472Z,51.1429
2022-10-11T11:37:59.266Z,51.1429
2022-10-11T11:38:52.522Z,50.5
2022-10-11T11:39:52.549Z,50.2143
2022-10-11T11:40:52.592Z,49.5714
2022-10-11T11:41:52.627Z,49.4286
2022-10-11T11:42:52.648Z,49.9286
2022-10-11T11:43:52.669Z,50.2857
2022-10-11T11:44:52.703Z,50.2857
2022-10-11T11:45:52.737Z,50.5714
2022-10-11T11:46:52.767Z,50.2857
2022-10-11T11:47:52.798Z,49.9286
2022-10-11T11:48:52.815Z,49.7143
2022-10-11T11:49:52.848Z,49.2143
2022-10-11T11:50:52.885Z,49.5714
2022-10-11T11:51:52.917Z,49.9286
2022-10-11T11:52:52.945Z,50.0714
2022-10-11T11:53:52.978Z,49.9286
2022-10-11T11:54:52.999Z,50.2857
2022-10-11T11:55:53.027Z,50.5714
2022-10-11T11:56:53.066Z,50.9286
2022-10-11T11:57:53.096Z,50.7143
2022-10-11T11:58:53.125Z,50.8571
2022-10-11T11:59:53.144Z,51.1429
2022-10-11T12:00:53.180Z,51.5
2022-10-11T12:01:53.233Z,51.7143
2022-10-11T12:02:53.252Z,51.8571
2022-10-11T12:03:53.276Z,51.2857
2022-10-11T12:04:53.306Z,50.7857
2022-10-11T12:05:53.336Z,50.3571
2022-10-11T12:07:15.002Z,50.4286
2022-10-11T12:07:53.400Z,50.4286
2022-10-11T12:08:53.433Z,50.5714
2022-10-11T12:09:53.470Z,50.6429
2022-10-11T12:10:53.501Z,50.6429
2022-10-11T12:11:53.533Z,51.0714
2022-10-11T12:12:53.564Z,51.2143
2022-10-11T12:13:53.596Z,51.3571
2022-10-11T12:14:53.630Z,51.2857
2022-10-11T12:15:53.661Z,51.4286
2022-10-11T12:16:53.686Z,50.9286
2022-10-11T12:17:53.716Z,50.9286
2022-10-11T12:18:53.761Z,51
2022-10-11T12:19:53.778Z,51